sensor_id;sensor_type;location;lat;lon;timestamp;P1;durP1;ratioP1;P2;durP2;ratioP2
6145;SDS011;3104;50.348;7.620;2023-05-31T00:02:17;5.50;;;4.03;;
6145;SDS011;3104;50.348;7.620;2023-05-31T00:04:42;6.70;;;3.70;;
6145;SDS011;3104;50.348;7.620;2023-05-31T00:07:08;7.23;;;3.87;;
6145;SDS011;3104;50.348;7.620;2023-05-31T00:09:33;5.10;;;4.10;;
6145;SDS011;3104;50.348;7.620;2023-05-31T00:11:59;5.60;;;4.13;;
6145;SDS011;3104;50.348;7.620;2023-05-31T00:14:25;8.80;;;4.33;;
6145;SDS011;3104;50.348;7.620;2023-05-31T00:16:51;7.30;;;4.00;;
6145;SDS011;3104;50.348;7.620;2023-05-31T00:19:17;3.70;;;3.40;;
6145;SDS011;3104;50.348;7.620;2023-05-31T00:21:43;10.60;;;4.37;;
6145;SDS011;3104;50.348;7.620;2023-05-31T00:24:10;4.43;;;4.00;;
6145;SDS011;3104;50.348;7.620;2023-05-31T00:26:36;6.53;;;3.73;;
6145;SDS011;3104;50.348;7.620;2023-05-31T00:29:01;4.53;;;3.73;;
6145;SDS011;3104;50.348;7.620;2023-05-31T00:31:27;7.53;;;3.93;;
6145;SDS011;3104;50.348;7.620;2023-05-31T00:33:53;6.70;;;4.43;;
6145;SDS011;3104;50.348;7.620;2023-05-31T00:36:18;3.87;;;3.27;;
6145;SDS011;3104;50.348;7.620;2023-05-31T00:38:44;8.00;;;4.77;;
6145;SDS011;3104;50.348;7.620;2023-05-31T00:41:10;5.73;;;3.60;;
6145;SDS011;3104;50.348;7.620;2023-05-31T00:43:36;5.90;;;4.03;;
6145;SDS011;3104;50.348;7.620;2023-05-31T00:46:01;3.83;;;3.37;;
6145;SDS011;3104;50.348;7.620;2023-05-31T00:48:28;4.43;;;3.70;;
6145;SDS011;3104;50.348;7.620;2023-05-31T00:50:54;4.47;;;3.83;;
6145;SDS011;3104;50.348;7.620;2023-05-31T00:53:21;6.67;;;4.13;;
6145;SDS011;3104;50.348;7.620;2023-05-31T00:55:47;5.00;;;3.70;;
6145;SDS011;3104;50.348;7.620;2023-05-31T00:58:16;9.33;;;3.60;;
6145;SDS011;3104;50.348;7.620;2023-05-31T01:00:41;5.10;;;3.70;;
6145;SDS011;3104;50.348;7.620;2023-05-31T01:03:08;6.40;;;3.40;;
6145;SDS011;3104;50.348;7.620;2023-05-31T01:05:34;6.30;;;3.23;;
6145;SDS011;3104;50.348;7.620;2023-05-31T01:08:00;5.60;;;3.97;;
6145;SDS011;3104;50.348;7.620;2023-05-31T01:10:26;4.20;;;3.80;;
6145;SDS011;3104;50.348;7.620;2023-05-31T01:13:00;4.43;;;3.83;;
6145;SDS011;3104;50.348;7.620;2023-05-31T01:15:51;4.23;;;3.90;;
6145;SDS011;3104;50.348;7.620;2023-05-31T01:18:43;5.87;;;4.23;;
6145;SDS011;3104;50.348;7.620;2023-05-31T01:21:11;4.57;;;3.50;;
6145;SDS011;3104;50.348;7.620;2023-05-31T01:29:17;6.57;;;3.93;;
6145;SDS011;3104;50.348;7.620;2023-05-31T01:31:45;6.10;;;3.50;;
6145;SDS011;3104;50.348;7.620;2023-05-31T01:34:11;4.73;;;3.33;;
6145;SDS011;3104;50.348;7.620;2023-05-31T01:36:38;6.60;;;3.67;;
6145;SDS011;3104;50.348;7.620;2023-05-31T01:39:04;4.40;;;4.00;;
6145;SDS011;3104;50.348;7.620;2023-05-31T01:41:31;5.83;;;3.97;;
6145;SDS011;3104;50.348;7.620;2023-05-31T01:44:01;5.83;;;4.70;;
6145;SDS011;3104;50.348;7.620;2023-05-31T01:46:27;5.00;;;4.50;;
6145;SDS011;3104;50.348;7.620;2023-05-31T01:48:53;6.10;;;3.80;;
6145;SDS011;3104;50.348;7.620;2023-05-31T01:51:19;5.97;;;4.10;;
6145;SDS011;3104;50.348;7.620;2023-05-31T01:53:45;6.30;;;4.27;;
6145;SDS011;3104;50.348;7.620;2023-05-31T01:56:11;5.73;;;3.77;;
6145;SDS011;3104;50.348;7.620;2023-05-31T01:58:39;5.63;;;3.73;;
6145;SDS011;3104;50.348;7.620;2023-05-31T02:01:13;5.37;;;3.90;;
6145;SDS011;3104;50.348;7.620;2023-05-31T02:03:41;9.37;;;4.13;;
6145;SDS011;3104;50.348;7.620;2023-05-31T02:06:07;5.57;;;4.30;;
6145;SDS011;3104;50.348;7.620;2023-05-31T02:08:32;7.93;;;4.00;;
6145;SDS011;3104;50.348;7.620;2023-05-31T02:10:58;8.97;;;5.73;;
6145;SDS011;3104;50.348;7.620;2023-05-31T02:13:25;4.77;;;3.90;;
6145;SDS011;3104;50.348;7.620;2023-05-31T02:15:54;4.20;;;3.57;;
6145;SDS011;3104;50.348;7.620;2023-05-31T02:18:21;4.33;;;3.77;;
6145;SDS011;3104;50.348;7.620;2023-05-31T02:20:47;4.80;;;3.63;;
6145;SDS011;3104;50.348;7.620;2023-05-31T02:23:12;5.20;;;3.80;;
6145;SDS011;3104;50.348;7.620;2023-05-31T02:25:39;5.93;;;4.63;;
6145;SDS011;3104;50.348;7.620;2023-05-31T02:28:05;5.23;;;4.03;;
6145;SDS011;3104;50.348;7.620;2023-05-31T02:30:31;5.53;;;4.33;;
6145;SDS011;3104;50.348;7.620;2023-05-31T02:32:57;5.47;;;4.40;;
6145;SDS011;3104;50.348;7.620;2023-05-31T02:35:25;6.87;;;4.40;;
6145;SDS011;3104;50.348;7.620;2023-05-31T02:37:50;8.80;;;4.37;;
6145;SDS011;3104;50.348;7.620;2023-05-31T02:40:16;7.17;;;4.10;;
6145;SDS011;3104;50.348;7.620;2023-05-31T02:42:42;4.33;;;3.70;;
6145;SDS011;3104;50.348;7.620;2023-05-31T02:45:08;5.90;;;4.57;;
6145;SDS011;3104;50.348;7.620;2023-05-31T02:47:35;5.33;;;3.50;;
6145;SDS011;3104;50.348;7.620;2023-05-31T02:50:02;5.27;;;3.50;;
6145;SDS011;3104;50.348;7.620;2023-05-31T02:52:36;4.33;;;3.93;;
6145;SDS011;3104;50.348;7.620;2023-05-31T02:55:02;6.63;;;4.57;;
6145;SDS011;3104;50.348;7.620;2023-05-31T02:57:28;4.70;;;3.73;;
6145;SDS011;3104;50.348;7.620;2023-05-31T02:59:54;4.60;;;4.20;;
6145;SDS011;3104;50.348;7.620;2023-05-31T03:02:22;4.70;;;4.20;;
6145;SDS011;3104;50.348;7.620;2023-05-31T03:04:48;4.80;;;4.40;;
6145;SDS011;3104;50.348;7.620;2023-05-31T03:07:13;4.23;;;3.67;;
6145;SDS011;3104;50.348;7.620;2023-05-31T03:09:39;7.00;;;4.30;;
6145;SDS011;3104;50.348;7.620;2023-05-31T03:12:05;7.20;;;4.77;;
6145;SDS011;3104;50.348;7.620;2023-05-31T03:14:31;4.37;;;3.80;;
6145;SDS011;3104;50.348;7.620;2023-05-31T03:16:57;5.63;;;3.90;;
6145;SDS011;3104;50.348;7.620;2023-05-31T03:19:22;5.87;;;4.50;;
6145;SDS011;3104;50.348;7.620;2023-05-31T03:21:48;4.60;;;4.20;;
6145;SDS011;3104;50.348;7.620;2023-05-31T03:24:14;7.00;;;5.50;;
6145;SDS011;3104;50.348;7.620;2023-05-31T03:26:39;6.50;;;5.40;;
6145;SDS011;3104;50.348;7.620;2023-05-31T03:29:05;8.13;;;5.83;;
6145;SDS011;3104;50.348;7.620;2023-05-31T03:31:31;5.63;;;4.90;;
6145;SDS011;3104;50.348;7.620;2023-05-31T03:33:57;7.00;;;5.07;;
6145;SDS011;3104;50.348;7.620;2023-05-31T03:36:23;5.03;;;3.63;;
6145;SDS011;3104;50.348;7.620;2023-05-31T03:38:49;6.50;;;4.53;;
6145;SDS011;3104;50.348;7.620;2023-05-31T03:41:14;8.23;;;4.43;;
6145;SDS011;3104;50.348;7.620;2023-05-31T03:43:40;7.07;;;4.33;;
6145;SDS011;3104;50.348;7.620;2023-05-31T03:46:05;5.87;;;4.43;;
6145;SDS011;3104;50.348;7.620;2023-05-31T03:48:31;4.90;;;4.40;;
6145;SDS011;3104;50.348;7.620;2023-05-31T03:50:57;6.07;;;5.47;;
6145;SDS011;3104;50.348;7.620;2023-05-31T03:53:23;8.43;;;5.33;;
6145;SDS011;3104;50.348;7.620;2023-05-31T03:55:48;6.30;;;4.93;;
6145;SDS011;3104;50.348;7.620;2023-05-31T03:58:14;7.17;;;5.03;;
6145;SDS011;3104;50.348;7.620;2023-05-31T04:00:40;8.00;;;4.70;;
6145;SDS011;3104;50.348;7.620;2023-05-31T04:03:06;6.37;;;4.47;;
6145;SDS011;3104;50.348;7.620;2023-05-31T04:05:32;5.40;;;4.43;;
6145;SDS011;3104;50.348;7.620;2023-05-31T04:07:58;8.93;;;4.47;;
6145;SDS011;3104;50.348;7.620;2023-05-31T04:10:27;9.57;;;4.77;;
6145;SDS011;3104;50.348;7.620;2023-05-31T04:12:52;8.20;;;4.27;;
6145;SDS011;3104;50.348;7.620;2023-05-31T04:15:18;6.10;;;5.37;;
6145;SDS011;3104;50.348;7.620;2023-05-31T04:17:43;6.60;;;3.80;;
6145;SDS011;3104;50.348;7.620;2023-05-31T04:20:10;7.43;;;4.60;;
6145;SDS011;3104;50.348;7.620;2023-05-31T04:22:36;7.47;;;4.80;;
6145;SDS011;3104;50.348;7.620;2023-05-31T04:25:02;5.10;;;4.27;;
6145;SDS011;3104;50.348;7.620;2023-05-31T04:27:28;7.70;;;6.90;;
6145;SDS011;3104;50.348;7.620;2023-05-31T04:29:57;6.27;;;5.77;;
6145;SDS011;3104;50.348;7.620;2023-05-31T04:32:23;6.60;;;4.70;;
6145;SDS011;3104;50.348;7.620;2023-05-31T04:34:49;6.30;;;4.83;;
6145;SDS011;3104;50.348;7.620;2023-05-31T04:37:17;5.03;;;4.53;;
6145;SDS011;3104;50.348;7.620;2023-05-31T04:39:43;5.50;;;4.77;;
6145;SDS011;3104;50.348;7.620;2023-05-31T04:42:09;8.53;;;5.43;;
6145;SDS011;3104;50.348;7.620;2023-05-31T04:44:36;21.50;;;17.87;;
6145;SDS011;3104;50.348;7.620;2023-05-31T04:47:02;9.10;;;6.10;;
6145;SDS011;3104;50.348;7.620;2023-05-31T04:49:29;5.93;;;5.40;;
6145;SDS011;3104;50.348;7.620;2023-05-31T04:51:55;7.93;;;6.57;;
6145;SDS011;3104;50.348;7.620;2023-05-31T04:54:21;7.03;;;5.63;;
6145;SDS011;3104;50.348;7.620;2023-05-31T04:56:47;13.93;;;11.47;;
6145;SDS011;3104;50.348;7.620;2023-05-31T04:59:13;7.87;;;5.33;;
6145;SDS011;3104;50.348;7.620;2023-05-31T05:01:38;6.90;;;6.20;;
6145;SDS011;3104;50.348;7.620;2023-05-31T05:04:05;6.40;;;4.83;;
6145;SDS011;3104;50.348;7.620;2023-05-31T05:06:31;8.73;;;5.90;;
6145;SDS011;3104;50.348;7.620;2023-05-31T05:08:57;12.87;;;6.67;;
6145;SDS011;3104;50.348;7.620;2023-05-31T05:11:23;8.93;;;6.07;;
6145;SDS011;3104;50.348;7.620;2023-05-31T05:13:48;7.80;;;6.40;;
6145;SDS011;3104;50.348;7.620;2023-05-31T05:16:14;10.37;;;6.43;;
6145;SDS011;3104;50.348;7.620;2023-05-31T05:18:40;6.57;;;5.80;;
6145;SDS011;3104;50.348;7.620;2023-05-31T05:21:06;7.43;;;5.80;;
6145;SDS011;3104;50.348;7.620;2023-05-31T05:23:31;5.87;;;5.37;;
6145;SDS011;3104;50.348;7.620;2023-05-31T05:25:58;11.97;;;6.63;;
6145;SDS011;3104;50.348;7.620;2023-05-31T05:28:23;5.90;;;5.30;;
6145;SDS011;3104;50.348;7.620;2023-05-31T05:30:49;7.60;;;6.00;;
6145;SDS011;3104;50.348;7.620;2023-05-31T05:33:15;7.33;;;5.70;;
6145;SDS011;3104;50.348;7.620;2023-05-31T05:35:41;8.30;;;5.33;;
6145;SDS011;3104;50.348;7.620;2023-05-31T05:38:06;8.43;;;5.70;;
6145;SDS011;3104;50.348;7.620;2023-05-31T05:40:32;7.07;;;5.67;;
6145;SDS011;3104;50.348;7.620;2023-05-31T05:42:58;6.77;;;5.47;;
6145;SDS011;3104;50.348;7.620;2023-05-31T05:45:23;6.50;;;4.80;;
6145;SDS011;3104;50.348;7.620;2023-05-31T05:47:49;6.70;;;5.53;;
6145;SDS011;3104;50.348;7.620;2023-05-31T05:50:14;7.87;;;4.63;;
6145;SDS011;3104;50.348;7.620;2023-05-31T05:52:40;7.27;;;4.70;;
6145;SDS011;3104;50.348;7.620;2023-05-31T05:55:06;6.50;;;5.90;;
6145;SDS011;3104;50.348;7.620;2023-05-31T05:57:32;5.83;;;4.40;;
6145;SDS011;3104;50.348;7.620;2023-05-31T05:59:57;5.70;;;4.50;;
6145;SDS011;3104;50.348;7.620;2023-05-31T06:02:23;6.83;;;4.40;;
6145;SDS011;3104;50.348;7.620;2023-05-31T06:04:49;8.37;;;5.57;;
6145;SDS011;3104;50.348;7.620;2023-05-31T06:07:16;8.63;;;3.83;;
6145;SDS011;3104;50.348;7.620;2023-05-31T06:09:42;7.80;;;4.00;;
6145;SDS011;3104;50.348;7.620;2023-05-31T06:12:08;6.23;;;3.67;;
6145;SDS011;3104;50.348;7.620;2023-05-31T06:14:34;4.80;;;3.70;;
6145;SDS011;3104;50.348;7.620;2023-05-31T06:17:00;6.90;;;4.37;;
6145;SDS011;3104;50.348;7.620;2023-05-31T06:19:25;3.87;;;3.50;;
6145;SDS011;3104;50.348;7.620;2023-05-31T06:21:51;5.63;;;3.63;;
6145;SDS011;3104;50.348;7.620;2023-05-31T06:24:18;5.67;;;3.57;;
6145;SDS011;3104;50.348;7.620;2023-05-31T06:26:44;5.30;;;3.67;;
6145;SDS011;3104;50.348;7.620;2023-05-31T06:29:10;4.40;;;3.53;;
6145;SDS011;3104;50.348;7.620;2023-05-31T06:31:35;5.60;;;4.00;;
6145;SDS011;3104;50.348;7.620;2023-05-31T06:34:01;7.03;;;4.70;;
6145;SDS011;3104;50.348;7.620;2023-05-31T06:36:28;4.77;;;3.50;;
6145;SDS011;3104;50.348;7.620;2023-05-31T06:38:54;4.03;;;3.60;;
6145;SDS011;3104;50.348;7.620;2023-05-31T06:41:19;3.53;;;3.23;;
6145;SDS011;3104;50.348;7.620;2023-05-31T06:43:45;7.80;;;3.93;;
6145;SDS011;3104;50.348;7.620;2023-05-31T06:46:11;4.30;;;3.23;;
6145;SDS011;3104;50.348;7.620;2023-05-31T06:48:37;7.70;;;3.60;;
6145;SDS011;3104;50.348;7.620;2023-05-31T06:51:03;3.80;;;3.50;;
6145;SDS011;3104;50.348;7.620;2023-05-31T06:53:28;5.70;;;3.37;;
6145;SDS011;3104;50.348;7.620;2023-05-31T06:55:54;4.33;;;3.63;;
6145;SDS011;3104;50.348;7.620;2023-05-31T06:58:19;3.73;;;3.40;;
6145;SDS011;3104;50.348;7.620;2023-05-31T07:00:45;4.93;;;3.50;;
6145;SDS011;3104;50.348;7.620;2023-05-31T07:03:10;3.77;;;3.33;;
6145;SDS011;3104;50.348;7.620;2023-05-31T07:05:36;6.33;;;3.20;;
6145;SDS011;3104;50.348;7.620;2023-05-31T07:08:02;4.50;;;3.03;;
6145;SDS011;3104;50.348;7.620;2023-05-31T07:10:27;5.30;;;3.50;;
6145;SDS011;3104;50.348;7.620;2023-05-31T07:12:53;4.53;;;3.43;;
6145;SDS011;3104;50.348;7.620;2023-05-31T07:15:19;5.57;;;3.37;;
6145;SDS011;3104;50.348;7.620;2023-05-31T07:17:45;3.17;;;2.80;;
6145;SDS011;3104;50.348;7.620;2023-05-31T07:20:11;8.03;;;3.23;;
6145;SDS011;3104;50.348;7.620;2023-05-31T07:22:37;5.83;;;3.67;;
6145;SDS011;3104;50.348;7.620;2023-05-31T07:25:03;4.40;;;3.00;;
6145;SDS011;3104;50.348;7.620;2023-05-31T07:27:32;4.80;;;3.57;;
6145;SDS011;3104;50.348;7.620;2023-05-31T07:29:58;6.17;;;3.70;;
6145;SDS011;3104;50.348;7.620;2023-05-31T07:32:23;7.90;;;4.83;;
6145;SDS011;3104;50.348;7.620;2023-05-31T07:34:49;3.63;;;3.33;;
6145;SDS011;3104;50.348;7.620;2023-05-31T07:37:14;4.90;;;2.80;;
6145;SDS011;3104;50.348;7.620;2023-05-31T07:39:40;5.80;;;5.00;;
6145;SDS011;3104;50.348;7.620;2023-05-31T07:42:06;6.83;;;3.30;;
6145;SDS011;3104;50.348;7.620;2023-05-31T07:44:31;12.23;;;4.80;;
6145;SDS011;3104;50.348;7.620;2023-05-31T07:46:57;4.53;;;3.03;;
6145;SDS011;3104;50.348;7.620;2023-05-31T07:49:22;3.53;;;3.23;;
6145;SDS011;3104;50.348;7.620;2023-05-31T07:51:48;4.70;;;3.43;;
6145;SDS011;3104;50.348;7.620;2023-05-31T07:54:14;4.27;;;3.87;;
6145;SDS011;3104;50.348;7.620;2023-05-31T07:56:39;3.47;;;3.13;;
6145;SDS011;3104;50.348;7.620;2023-05-31T07:59:05;5.40;;;3.70;;
6145;SDS011;3104;50.348;7.620;2023-05-31T08:01:31;3.73;;;2.80;;
6145;SDS011;3104;50.348;7.620;2023-05-31T08:04:04;6.20;;;3.17;;
6145;SDS011;3104;50.348;7.620;2023-05-31T08:06:31;7.00;;;3.40;;
6145;SDS011;3104;50.348;7.620;2023-05-31T08:08:57;2.87;;;2.67;;
6145;SDS011;3104;50.348;7.620;2023-05-31T08:11:23;4.20;;;3.20;;
6145;SDS011;3104;50.348;7.620;2023-05-31T08:13:50;5.30;;;3.00;;
6145;SDS011;3104;50.348;7.620;2023-05-31T08:16:16;5.63;;;3.00;;
6145;SDS011;3104;50.348;7.620;2023-05-31T08:18:42;8.10;;;2.97;;
6145;SDS011;3104;50.348;7.620;2023-05-31T08:21:08;3.77;;;3.00;;
6145;SDS011;3104;50.348;7.620;2023-05-31T08:23:34;3.73;;;2.90;;
6145;SDS011;3104;50.348;7.620;2023-05-31T08:26:00;4.13;;;2.83;;
6145;SDS011;3104;50.348;7.620;2023-05-31T08:28:25;3.97;;;3.57;;
6145;SDS011;3104;50.348;7.620;2023-05-31T08:30:51;4.60;;;3.30;;
6145;SDS011;3104;50.348;7.620;2023-05-31T08:33:17;4.80;;;3.27;;
6145;SDS011;3104;50.348;7.620;2023-05-31T08:35:43;2.83;;;2.53;;
6145;SDS011;3104;50.348;7.620;2023-05-31T08:38:08;3.23;;;2.93;;
6145;SDS011;3104;50.348;7.620;2023-05-31T08:40:34;4.47;;;2.70;;
6145;SDS011;3104;50.348;7.620;2023-05-31T08:43:05;3.67;;;2.40;;
6145;SDS011;3104;50.348;7.620;2023-05-31T08:45:35;3.40;;;3.00;;
6145;SDS011;3104;50.348;7.620;2023-05-31T08:50:52;6.20;;;3.50;;
6145;SDS011;3104;50.348;7.620;2023-05-31T08:53:20;3.37;;;3.00;;
6145;SDS011;3104;50.348;7.620;2023-05-31T08:55:49;2.90;;;2.60;;
6145;SDS011;3104;50.348;7.620;2023-05-31T08:58:17;5.23;;;2.90;;
6145;SDS011;3104;50.348;7.620;2023-05-31T09:00:44;4.20;;;2.97;;
6145;SDS011;3104;50.348;7.620;2023-05-31T09:03:10;3.07;;;2.77;;
6145;SDS011;3104;50.348;7.620;2023-05-31T09:05:36;3.30;;;2.67;;
6145;SDS011;3104;50.348;7.620;2023-05-31T09:08:02;3.83;;;3.10;;
6145;SDS011;3104;50.348;7.620;2023-05-31T09:10:27;5.40;;;2.83;;
6145;SDS011;3104;50.348;7.620;2023-05-31T09:12:54;5.23;;;3.10;;
6145;SDS011;3104;50.348;7.620;2023-05-31T09:15:21;3.57;;;3.27;;
6145;SDS011;3104;50.348;7.620;2023-05-31T09:17:48;4.80;;;2.70;;
6145;SDS011;3104;50.348;7.620;2023-05-31T09:20:14;6.20;;;2.80;;
6145;SDS011;3104;50.348;7.620;2023-05-31T09:22:40;3.63;;;2.93;;
6145;SDS011;3104;50.348;7.620;2023-05-31T09:25:06;2.83;;;2.60;;
6145;SDS011;3104;50.348;7.620;2023-05-31T09:27:36;3.87;;;2.90;;
6145;SDS011;3104;50.348;7.620;2023-05-31T09:30:06;3.33;;;3.03;;
6145;SDS011;3104;50.348;7.620;2023-05-31T09:32:36;4.93;;;2.53;;
6145;SDS011;3104;50.348;7.620;2023-05-31T09:40:14;4.07;;;2.70;;
6145;SDS011;3104;50.348;7.620;2023-05-31T09:42:48;4.00;;;2.60;;
6145;SDS011;3104;50.348;7.620;2023-05-31T09:45:14;2.50;;;2.30;;
6145;SDS011;3104;50.348;7.620;2023-05-31T09:47:40;2.63;;;2.43;;
6145;SDS011;3104;50.348;7.620;2023-05-31T09:50:16;3.60;;;2.63;;
6145;SDS011;3104;50.348;7.620;2023-05-31T09:52:46;4.00;;;2.57;;
6145;SDS011;3104;50.348;7.620;2023-05-31T09:55:13;6.20;;;3.70;;
6145;SDS011;3104;50.348;7.620;2023-05-31T09:57:41;4.07;;;2.83;;
6145;SDS011;3104;50.348;7.620;2023-05-31T10:00:09;3.60;;;2.80;;
6145;SDS011;3104;50.348;7.620;2023-05-31T10:02:43;5.63;;;3.13;;
6145;SDS011;3104;50.348;7.620;2023-05-31T10:05:19;3.03;;;2.83;;
6145;SDS011;3104;50.348;7.620;2023-05-31T10:07:49;2.80;;;2.50;;
6145;SDS011;3104;50.348;7.620;2023-05-31T10:10:16;2.57;;;2.37;;
6145;SDS011;3104;50.348;7.620;2023-05-31T10:15:16;3.73;;;2.70;;
6145;SDS011;3104;50.348;7.620;2023-05-31T10:17:48;3.53;;;2.70;;
6145;SDS011;3104;50.348;7.620;2023-05-31T10:23:17;4.10;;;2.90;;
6145;SDS011;3104;50.348;7.620;2023-05-31T10:25:57;5.20;;;2.83;;
6145;SDS011;3104;50.348;7.620;2023-05-31T10:28:36;5.03;;;2.60;;
6145;SDS011;3104;50.348;7.620;2023-05-31T10:31:19;3.40;;;2.73;;
6145;SDS011;3104;50.348;7.620;2023-05-31T10:33:48;3.00;;;2.80;;
6145;SDS011;3104;50.348;7.620;2023-05-31T10:36:26;3.30;;;2.80;;
6145;SDS011;3104;50.348;7.620;2023-05-31T10:38:55;3.30;;;2.57;;
6145;SDS011;3104;50.348;7.620;2023-05-31T10:41:26;2.67;;;2.43;;
6145;SDS011;3104;50.348;7.620;2023-05-31T10:44:17;5.73;;;2.17;;
6145;SDS011;3104;50.348;7.620;2023-05-31T10:46:52;2.70;;;2.50;;
6145;SDS011;3104;50.348;7.620;2023-05-31T10:49:24;2.43;;;2.23;;
6145;SDS011;3104;50.348;7.620;2023-05-31T10:52:02;4.77;;;2.77;;
6145;SDS011;3104;50.348;7.620;2023-05-31T10:54:29;2.50;;;2.30;;
6145;SDS011;3104;50.348;7.620;2023-05-31T10:56:58;5.77;;;2.33;;
6145;SDS011;3104;50.348;7.620;2023-05-31T10:59:24;3.33;;;2.43;;
6145;SDS011;3104;50.348;7.620;2023-05-31T11:01:51;4.50;;;2.50;;
6145;SDS011;3104;50.348;7.620;2023-05-31T11:04:24;4.07;;;2.47;;
6145;SDS011;3104;50.348;7.620;2023-05-31T11:06:53;3.00;;;2.80;;
6145;SDS011;3104;50.348;7.620;2023-05-31T11:09:20;3.43;;;2.70;;
6145;SDS011;3104;50.348;7.620;2023-05-31T11:11:47;3.23;;;2.93;;
6145;SDS011;3104;50.348;7.620;2023-05-31T11:19:20;2.97;;;2.10;;
6145;SDS011;3104;50.348;7.620;2023-05-31T11:21:51;4.00;;;3.10;;
6145;SDS011;3104;50.348;7.620;2023-05-31T11:26:54;2.70;;;2.50;;
6145;SDS011;3104;50.348;7.620;2023-05-31T11:29:22;3.80;;;2.60;;
6145;SDS011;3104;50.348;7.620;2023-05-31T11:34:30;4.17;;;2.30;;
6145;SDS011;3104;50.348;7.620;2023-05-31T11:36:59;3.80;;;2.40;;
6145;SDS011;3104;50.348;7.620;2023-05-31T11:39:26;4.33;;;2.90;;
6145;SDS011;3104;50.348;7.620;2023-05-31T11:41:53;6.50;;;2.90;;
6145;SDS011;3104;50.348;7.620;2023-05-31T11:44:20;3.20;;;2.90;;
6145;SDS011;3104;50.348;7.620;2023-05-31T11:46:52;5.07;;;3.00;;
6145;SDS011;3104;50.348;7.620;2023-05-31T11:49:21;2.63;;;2.43;;
6145;SDS011;3104;50.348;7.620;2023-05-31T11:51:47;3.03;;;2.67;;
6145;SDS011;3104;50.348;7.620;2023-05-31T11:54:13;3.13;;;2.70;;
6145;SDS011;3104;50.348;7.620;2023-05-31T11:56:39;3.50;;;2.43;;
6145;SDS011;3104;50.348;7.620;2023-05-31T11:59:06;4.90;;;2.23;;
6145;SDS011;3104;50.348;7.620;2023-05-31T12:01:36;3.10;;;2.60;;
6145;SDS011;3104;50.348;7.620;2023-05-31T12:04:05;5.67;;;2.40;;
6145;SDS011;3104;50.348;7.620;2023-05-31T12:06:30;2.67;;;2.47;;
6145;SDS011;3104;50.348;7.620;2023-05-31T12:08:57;4.97;;;3.10;;
6145;SDS011;3104;50.348;7.620;2023-05-31T12:11:23;4.30;;;2.90;;
6145;SDS011;3104;50.348;7.620;2023-05-31T12:13:48;2.60;;;2.40;;
6145;SDS011;3104;50.348;7.620;2023-05-31T12:16:14;5.30;;;2.90;;
6145;SDS011;3104;50.348;7.620;2023-05-31T12:18:40;4.00;;;2.37;;
6145;SDS011;3104;50.348;7.620;2023-05-31T12:21:06;4.10;;;2.50;;
6145;SDS011;3104;50.348;7.620;2023-05-31T12:23:33;3.00;;;2.50;;
6145;SDS011;3104;50.348;7.620;2023-05-31T12:26:15;2.47;;;2.30;;
6145;SDS011;3104;50.348;7.620;2023-05-31T12:28:42;2.50;;;2.30;;
6145;SDS011;3104;50.348;7.620;2023-05-31T12:31:07;4.97;;;2.33;;
6145;SDS011;3104;50.348;7.620;2023-05-31T12:33:36;2.43;;;2.23;;
6145;SDS011;3104;50.348;7.620;2023-05-31T12:36:03;3.23;;;2.90;;
6145;SDS011;3104;50.348;7.620;2023-05-31T12:38:29;4.10;;;2.67;;
6145;SDS011;3104;50.348;7.620;2023-05-31T12:40:55;4.43;;;2.60;;
6145;SDS011;3104;50.348;7.620;2023-05-31T12:43:20;2.60;;;2.40;;
6145;SDS011;3104;50.348;7.620;2023-05-31T12:45:46;3.10;;;2.10;;
6145;SDS011;3104;50.348;7.620;2023-05-31T12:48:12;2.87;;;2.57;;
6145;SDS011;3104;50.348;7.620;2023-05-31T12:50:46;3.10;;;2.53;;
6145;SDS011;3104;50.348;7.620;2023-05-31T12:53:12;3.37;;;3.07;;
6145;SDS011;3104;50.348;7.620;2023-05-31T12:55:38;4.70;;;2.23;;
6145;SDS011;3104;50.348;7.620;2023-05-31T12:58:04;3.20;;;2.90;;
6145;SDS011;3104;50.348;7.620;2023-05-31T13:00:29;2.87;;;2.67;;
6145;SDS011;3104;50.348;7.620;2023-05-31T13:02:55;4.60;;;2.43;;
6145;SDS011;3104;50.348;7.620;2023-05-31T13:05:21;3.23;;;2.93;;
6145;SDS011;3104;50.348;7.620;2023-05-31T13:07:47;2.57;;;2.10;;
6145;SDS011;3104;50.348;7.620;2023-05-31T13:10:12;4.50;;;2.43;;
6145;SDS011;3104;50.348;7.620;2023-05-31T13:12:39;3.07;;;2.50;;
6145;SDS011;3104;50.348;7.620;2023-05-31T13:15:06;3.57;;;2.20;;
6145;SDS011;3104;50.348;7.620;2023-05-31T13:17:32;3.73;;;2.43;;
6145;SDS011;3104;50.348;7.620;2023-05-31T13:19:58;2.43;;;2.27;;
6145;SDS011;3104;50.348;7.620;2023-05-31T13:22:24;6.73;;;2.33;;
6145;SDS011;3104;50.348;7.620;2023-05-31T13:24:49;4.93;;;2.70;;
6145;SDS011;3104;50.348;7.620;2023-05-31T13:27:15;2.90;;;2.70;;
6145;SDS011;3104;50.348;7.620;2023-05-31T13:29:40;3.67;;;2.97;;
6145;SDS011;3104;50.348;7.620;2023-05-31T13:32:06;3.20;;;2.20;;
6145;SDS011;3104;50.348;7.620;2023-05-31T13:34:32;8.50;;;2.57;;
6145;SDS011;3104;50.348;7.620;2023-05-31T13:36:57;3.33;;;2.37;;
6145;SDS011;3104;50.348;7.620;2023-05-31T13:39:23;5.40;;;2.80;;
6145;SDS011;3104;50.348;7.620;2023-05-31T13:41:48;3.67;;;3.07;;
6145;SDS011;3104;50.348;7.620;2023-05-31T13:44:14;3.07;;;2.87;;
6145;SDS011;3104;50.348;7.620;2023-05-31T13:46:41;3.03;;;2.50;;
6145;SDS011;3104;50.348;7.620;2023-05-31T13:49:12;3.43;;;2.43;;
6145;SDS011;3104;50.348;7.620;2023-05-31T13:51:40;3.80;;;2.50;;
6145;SDS011;3104;50.348;7.620;2023-05-31T13:54:06;2.70;;;2.50;;
6145;SDS011;3104;50.348;7.620;2023-05-31T13:56:32;5.53;;;2.93;;
6145;SDS011;3104;50.348;7.620;2023-05-31T13:58:57;2.30;;;2.20;;
6145;SDS011;3104;50.348;7.620;2023-05-31T14:01:23;3.30;;;3.00;;
6145;SDS011;3104;50.348;7.620;2023-05-31T14:03:48;4.40;;;2.60;;
6145;SDS011;3104;50.348;7.620;2023-05-31T14:06:15;2.50;;;2.30;;
6145;SDS011;3104;50.348;7.620;2023-05-31T14:08:41;3.37;;;2.77;;
6145;SDS011;3104;50.348;7.620;2023-05-31T14:11:09;3.50;;;2.30;;
6145;SDS011;3104;50.348;7.620;2023-05-31T14:13:34;3.33;;;3.07;;
6145;SDS011;3104;50.348;7.620;2023-05-31T14:16:00;3.93;;;2.80;;
6145;SDS011;3104;50.348;7.620;2023-05-31T14:18:26;2.63;;;2.43;;
6145;SDS011;3104;50.348;7.620;2023-05-31T14:20:51;2.80;;;2.37;;
6145;SDS011;3104;50.348;7.620;2023-05-31T14:23:17;2.73;;;2.53;;
6145;SDS011;3104;50.348;7.620;2023-05-31T14:25:43;2.97;;;2.67;;
6145;SDS011;3104;50.348;7.620;2023-05-31T14:28:08;4.03;;;2.70;;
6145;SDS011;3104;50.348;7.620;2023-05-31T14:30:34;2.97;;;2.77;;
6145;SDS011;3104;50.348;7.620;2023-05-31T14:32:59;3.97;;;2.30;;
6145;SDS011;3104;50.348;7.620;2023-05-31T14:35:26;2.40;;;2.20;;
6145;SDS011;3104;50.348;7.620;2023-05-31T14:37:51;3.77;;;2.80;;
6145;SDS011;3104;50.348;7.620;2023-05-31T14:40:17;4.60;;;2.57;;
6145;SDS011;3104;50.348;7.620;2023-05-31T14:42:43;3.00;;;2.00;;
6145;SDS011;3104;50.348;7.620;2023-05-31T14:45:08;6.07;;;2.90;;
6145;SDS011;3104;50.348;7.620;2023-05-31T14:47:34;2.73;;;2.50;;
6145;SDS011;3104;50.348;7.620;2023-05-31T14:50:01;3.23;;;2.90;;
6145;SDS011;3104;50.348;7.620;2023-05-31T14:52:28;2.73;;;2.43;;
6145;SDS011;3104;50.348;7.620;2023-05-31T14:54:54;3.00;;;2.30;;
6145;SDS011;3104;50.348;7.620;2023-05-31T14:57:19;4.33;;;2.60;;
6145;SDS011;3104;50.348;7.620;2023-05-31T14:59:45;3.93;;;2.17;;
6145;SDS011;3104;50.348;7.620;2023-05-31T15:02:10;2.70;;;2.50;;
6145;SDS011;3104;50.348;7.620;2023-05-31T15:04:36;5.03;;;2.50;;
6145;SDS011;3104;50.348;7.620;2023-05-31T15:07:01;2.60;;;2.40;;
6145;SDS011;3104;50.348;7.620;2023-05-31T15:09:27;2.70;;;2.50;;
6145;SDS011;3104;50.348;7.620;2023-05-31T15:11:53;4.53;;;2.63;;
6145;SDS011;3104;50.348;7.620;2023-05-31T15:14:18;4.10;;;3.70;;
6145;SDS011;3104;50.348;7.620;2023-05-31T15:16:44;4.70;;;2.50;;
6145;SDS011;3104;50.348;7.620;2023-05-31T15:19:09;3.67;;;2.30;;
6145;SDS011;3104;50.348;7.620;2023-05-31T15:21:35;8.90;;;2.50;;
6145;SDS011;3104;50.348;7.620;2023-05-31T15:24:01;2.93;;;2.47;;
6145;SDS011;3104;50.348;7.620;2023-05-31T15:26:27;3.30;;;2.03;;
6145;SDS011;3104;50.348;7.620;2023-05-31T15:28:53;4.00;;;2.87;;
6145;SDS011;3104;50.348;7.620;2023-05-31T15:31:19;6.37;;;2.27;;
6145;SDS011;3104;50.348;7.620;2023-05-31T15:33:45;2.70;;;2.50;;
6145;SDS011;3104;50.348;7.620;2023-05-31T15:36:10;2.83;;;2.57;;
6145;SDS011;3104;50.348;7.620;2023-05-31T15:38:36;3.40;;;2.50;;
6145;SDS011;3104;50.348;7.620;2023-05-31T15:41:02;2.60;;;2.40;;
6145;SDS011;3104;50.348;7.620;2023-05-31T15:43:27;2.63;;;2.43;;